Cape Bruny, Tasmania

3:15 PM EST on September 15, 2014 (GMT +1000)
Huon Valley | Change Station
CLOSE
Current Station
Personal Weather Station
Location: Garden Island Creek, TASMANIA
Elevation: 98 ft
Nearby Weather Stations

Elev 98 ft 43.24 °S, 147.15 °E | Updated 6 seconds ago

Partly Cloudy
Partly Cloudy
53.2 °F
Feels Like 53.2 °F
N
3.0
Wind Variable Wind from SE
Gusts 11.0 mph

Today
High -- | Low -- °F
--% Chance of Precip.
Yesterday
High -- | Low -- °F
Precip. -- in
6:14 AM 5:59 PM
Waning Gibbous, 59% visible
Pressure 30.01 in
Visibility 6.2 miles
Clouds Few 4000 ft
Dew Point 39 °F
Humidity 58%
Rainfall 0.00 in
Snow Depth Not available.
UV 3 out of 12
Pollen Not available.
Air Quality Not available.
Flu Activity Not available.
METAR YMHB 150500Z 13010KT 9999 FEW040 11/03 Q1016 RMK HAZE

More Conditions Fewer Conditions

Pressure 30.01 in
Visibility 6.2 miles
Clouds Few 4000 ft
Dew Point 39 °F
Humidity 58%
Rainfall 0.00 in
Snow Depth Not available.
UV 3 out of 12
Pollen Not available.
Air Quality Not available.
Flu Activity Not available.
METAR YMHB 150500Z 13010KT 9999 FEW040 11/03 Q1016 RMK HAZE

More Conditions Fewer Conditions

10-Day Weather Forecast

Almanac

Astronomy

Sep. 15, 2014 Rise Set
Actual Time 6:14 AM EST 5:59 PM EST
Civil Twilight 5:45 AM EST 6:28 PM EST
Nautical Twilight 5:12 AM EST 7:01 PM EST
Astronomical Twilight 4:39 AM EST 7:35 PM EST
Moon No Moon Rise 9:56 AM EST
Length of Visible Light 12h 42m
Length of Day
11h 45m
Tomorrow will be 2m 56s longer.
Waning Gibbous, 59% of the Moon is Illuminated
Today
Waning Gibbous
Sep 15
Last Quarter
Sep 24
New
Oct 1
First Quarter
Oct 8
Full

Yesterday's Extremes

Country Highs Country Lows

Community

WunderPhotos

Upload Photos

1,753,411 photos uploaded!

Nearby

Snow Depth

Not available.

Earthquake Activity

City Distance Mag. Time & Date
No recent earthquake activity has been reported nearby.
Minimum magnitude displayed is 2.5.

Coastal Water Temperatures

Place Temperature
No Stations Reporting

Nearby Weather Stations